createdAt,value
2017-02-20T00:00:05.484Z,0
2017-02-20T00:01:05.502Z,0
2017-02-20T00:02:05.492Z,0
2017-02-20T00:03:05.566Z,0
2017-02-20T00:04:05.553Z,0
2017-02-20T00:05:05.569Z,0
2017-02-20T00:06:05.536Z,0
2017-02-20T00:07:05.575Z,0
2017-02-20T00:08:05.210Z,0
2017-02-20T00:09:05.186Z,0
2017-02-20T00:10:05.590Z,0
2017-02-20T00:11:05.148Z,0
2017-02-20T00:12:05.650Z,0
2017-02-20T00:13:05.154Z,0
2017-02-20T00:14:05.600Z,0
2017-02-20T00:15:05.694Z,0
2017-02-20T00:16:05.316Z,0
2017-02-20T00:17:05.192Z,0
2017-02-20T00:18:05.582Z,0
2017-02-20T00:19:05.295Z,0
2017-02-20T00:20:05.257Z,0
2017-02-20T00:21:05.250Z,0
2017-02-20T00:22:04.856Z,0
2017-02-20T00:23:05.225Z,0
2017-02-20T00:24:05.618Z,0
2017-02-20T00:25:05.712Z,0
2017-02-20T00:26:05.244Z,0
2017-02-20T00:27:05.630Z,0
2017-02-20T00:28:05.702Z,0
2017-02-20T00:29:05.638Z,0
2017-02-20T00:30:05.278Z,0
2017-02-20T00:31:05.681Z,0
2017-02-20T00:32:05.703Z,0
2017-02-20T00:33:05.710Z,0
2017-02-20T00:34:05.675Z,0
2017-02-20T00:35:06.070Z,0
2017-02-20T00:36:05.729Z,0
2017-02-20T00:37:05.294Z,0
2017-02-20T00:38:05.716Z,0
2017-02-20T00:39:05.805Z,0
2017-02-20T00:40:05.760Z,0
2017-02-20T00:41:05.410Z,0
2017-02-20T00:42:05.710Z,0
2017-02-20T00:43:05.722Z,0
2017-02-20T00:44:20.208Z,0
2017-02-20T00:45:05.827Z,0
2017-02-20T00:46:05.437Z,0
2017-02-20T00:47:05.832Z,0
2017-02-20T00:48:05.394Z,0
2017-02-20T00:49:05.770Z,0
2017-02-20T00:50:05.370Z,0
2017-02-20T00:51:05.768Z,0
2017-02-20T00:52:05.468Z,0
2017-02-20T00:53:05.795Z,0
2017-02-20T00:54:05.787Z,0
2017-02-20T00:55:05.446Z,0
2017-02-20T00:56:05.494Z,0
2017-02-20T00:57:05.445Z,0
2017-02-20T00:58:05.454Z,0
2017-02-20T00:59:05.803Z,0
2017-02-20T01:00:05.423Z,0
2017-02-20T01:01:05.864Z,0
2017-02-20T01:02:05.530Z,0
2017-02-20T01:03:05.443Z,0
2017-02-20T01:04:05.904Z,0
2017-02-20T01:05:05.849Z,0
2017-02-20T01:06:05.512Z,0
2017-02-20T01:07:05.523Z,0
2017-02-20T01:08:05.473Z,0
2017-02-20T01:09:06.275Z,0
2017-02-20T01:10:05.923Z,0
2017-02-20T01:11:05.561Z,0
2017-02-20T01:12:05.541Z,0
2017-02-20T01:13:05.498Z,0
2017-02-20T01:14:05.548Z,0
2017-02-20T01:15:05.559Z,0
2017-02-20T01:16:05.899Z,0
2017-02-20T01:17:05.911Z,0
2017-02-20T01:18:05.629Z,0
2017-02-20T01:19:06.019Z,0
2017-02-20T01:20:05.933Z,0
2017-02-20T01:21:05.997Z,0
2017-02-20T01:22:05.987Z,0
2017-02-20T01:23:05.640Z,0
2017-02-20T01:24:05.959Z,0
2017-02-20T01:25:05.975Z,0
2017-02-20T01:26:05.642Z,0
2017-02-20T01:27:06.023Z,0
2017-02-20T01:28:05.972Z,0
2017-02-20T01:29:06.069Z,0
2017-02-20T01:30:05.993Z,0
2017-02-20T01:31:06.058Z,0
2017-02-20T01:32:05.227Z,0
2017-02-20T01:33:05.661Z,0
2017-02-20T01:34:05.604Z,0
2017-02-20T01:35:05.630Z,0
2017-02-20T01:36:06.014Z,0
2017-02-20T01:37:05.718Z,0
2017-02-20T01:38:05.338Z,0
2017-02-20T01:39:06.143Z,0
2017-02-20T01:40:05.774Z,0
2017-02-20T01:41:06.040Z,0
2017-02-20T01:42:05.647Z,0
2017-02-20T01:43:06.168Z,0
2017-02-20T01:44:06.101Z,0
2017-02-20T01:45:06.012Z,0
2017-02-20T01:46:05.770Z,0
2017-02-20T01:47:06.127Z,0
2017-02-20T01:48:05.735Z,0
2017-02-20T01:49:06.093Z,0
2017-02-20T01:50:06.110Z,0
2017-02-20T01:51:05.490Z,0
2017-02-20T01:52:05.773Z,0
2017-02-20T01:53:05.759Z,0
2017-02-20T01:54:05.765Z,0
2017-02-20T01:55:06.115Z,0
2017-02-20T01:56:06.222Z,0
2017-02-20T01:57:05.833Z,0
2017-02-20T01:58:06.198Z,0
2017-02-20T01:59:05.812Z,0
2017-02-20T02:00:06.199Z,0
2017-02-20T02:01:06.153Z,0
2017-02-20T02:02:06.215Z,0
2017-02-20T02:03:06.237Z,0
2017-02-20T02:04:06.236Z,0
2017-02-20T02:05:06.228Z,0
2017-02-20T02:06:06.196Z,0
2017-02-20T02:07:06.240Z,0
2017-02-20T02:08:06.241Z,0
2017-02-20T02:09:06.296Z,0
2017-02-20T02:10:06.433Z,0
2017-02-20T02:11:06.325Z,0
2017-02-20T02:12:05.829Z,0
2017-02-20T02:13:05.918Z,0
2017-02-20T02:14:06.325Z,0
2017-02-20T02:15:06.331Z,0
2017-02-20T02:16:06.356Z,0
2017-02-20T02:17:05.857Z,0
2017-02-20T02:18:05.906Z,0
2017-02-20T02:19:05.907Z,0
2017-02-20T02:20:06.369Z,0
2017-02-20T02:21:06.349Z,0
2017-02-20T02:22:06.324Z,0
2017-02-20T02:23:05.544Z,0
2017-02-20T02:24:06.431Z,0
2017-02-20T02:25:06.648Z,0
2017-02-20T02:26:06.406Z,0
2017-02-20T02:27:06.412Z,0
2017-02-20T02:28:06.408Z,0
2017-02-20T02:29:06.471Z,0
2017-02-20T02:30:06.371Z,0
2017-02-20T02:31:06.177Z,0
2017-02-20T02:32:06.371Z,0
2017-02-20T02:33:05.959Z,0
2017-02-20T02:34:06.410Z,0
2017-02-20T02:35:05.960Z,0
2017-02-20T02:36:06.104Z,0
2017-02-20T02:37:06.039Z,0
2017-02-20T02:38:06.415Z,0
2017-02-20T02:39:06.423Z,0
2017-02-20T02:40:06.381Z,0
2017-02-20T02:41:06.369Z,0
2017-02-20T02:42:06.425Z,0
2017-02-20T02:43:05.988Z,0
2017-02-20T02:44:06.104Z,0
2017-02-20T02:45:05.999Z,0
2017-02-20T02:46:06.414Z,0
2017-02-20T02:47:06.432Z,0
2017-02-20T02:48:06.030Z,0
2017-02-20T02:49:06.033Z,0
2017-02-20T02:50:06.492Z,0
2017-02-20T02:51:06.523Z,0
2017-02-20T02:52:06.439Z,0
2017-02-20T02:53:05.758Z,0
2017-02-20T02:54:06.106Z,0
2017-02-20T02:55:06.116Z,0
2017-02-20T02:56:06.525Z,0
2017-02-20T02:57:06.082Z,0
2017-02-20T02:58:05.674Z,0
2017-02-20T02:59:05.676Z,0
2017-02-20T03:00:06.542Z,0
2017-02-20T03:01:06.555Z,0
2017-02-20T03:02:06.154Z,0
2017-02-20T03:03:06.163Z,0
2017-02-20T03:04:06.618Z,0
2017-02-20T03:05:06.128Z,0
2017-02-20T03:06:06.560Z,0
2017-02-20T03:07:06.185Z,0
2017-02-20T03:08:06.532Z,0
2017-02-20T03:09:06.595Z,0
2017-02-20T03:10:06.600Z,0
2017-02-20T03:11:06.576Z,0
2017-02-20T03:12:06.615Z,0
2017-02-20T03:13:06.227Z,0
2017-02-20T03:14:06.169Z,0
2017-02-20T03:15:06.611Z,0
2017-02-20T03:16:06.572Z,0
2017-02-20T03:17:06.633Z,0
2017-02-20T03:18:06.698Z,0
2017-02-20T03:19:06.708Z,0
2017-02-20T03:20:06.643Z,0
2017-02-20T03:21:06.209Z,0
2017-02-20T03:22:06.663Z,0
2017-02-20T03:23:06.615Z,0
2017-02-20T03:24:06.684Z,0
2017-02-20T03:25:06.227Z,0
2017-02-20T03:26:06.641Z,0
2017-02-20T03:27:06.637Z,0
2017-02-20T03:28:06.307Z,0
2017-02-20T03:29:06.694Z,0
2017-02-20T03:30:06.787Z,0
2017-02-20T03:31:06.659Z,0
2017-02-20T03:32:05.924Z,0
2017-02-20T03:33:06.669Z,0
2017-02-20T03:34:06.340Z,0
2017-02-20T03:35:06.315Z,0
2017-02-20T03:36:06.731Z,0
2017-02-20T03:37:06.695Z,0
2017-02-20T03:38:06.875Z,0
2017-02-20T03:39:06.023Z,0
2017-02-20T03:40:06.790Z,0
2017-02-20T03:41:06.385Z,0
2017-02-20T03:42:06.928Z,0
2017-02-20T03:43:06.347Z,0
2017-02-20T03:44:06.853Z,0
2017-02-20T03:45:06.752Z,0
2017-02-20T03:46:06.499Z,0
2017-02-20T03:47:06.448Z,0
2017-02-20T03:48:06.766Z,0
2017-02-20T03:49:06.890Z,0
2017-02-20T03:50:06.442Z,0
2017-02-20T03:51:06.832Z,0
2017-02-20T03:52:07.091Z,0
2017-02-20T03:53:06.852Z,0
2017-02-20T03:54:06.842Z,0
2017-02-20T03:55:06.837Z,0
2017-02-20T03:56:06.811Z,0
2017-02-20T03:57:06.454Z,0
2017-02-20T03:58:06.475Z,0
2017-02-20T03:59:06.426Z,0
2017-02-20T04:00:06.905Z,0
2017-02-20T04:01:06.443Z,0
2017-02-20T04:02:06.490Z,0
2017-02-20T04:03:06.517Z,0
2017-02-20T04:04:06.454Z,0
2017-02-20T04:05:06.857Z,0
2017-02-20T04:06:06.959Z,0
2017-02-20T04:07:06.931Z,0
2017-02-20T04:08:06.881Z,0
2017-02-20T04:09:06.885Z,0
2017-02-20T04:10:06.901Z,0
2017-02-20T04:11:07.140Z,0
2017-02-20T04:12:06.938Z,0
2017-02-20T04:13:06.951Z,0
2017-02-20T04:14:06.908Z,0
2017-02-20T04:15:06.921Z,0
2017-02-20T04:16:06.962Z,0
2017-02-20T04:17:06.942Z,0
2017-02-20T04:18:06.922Z,0
2017-02-20T04:19:06.535Z,0
2017-02-20T04:20:07.021Z,0
2017-02-20T04:21:06.937Z,0
2017-02-20T04:22:06.667Z,0
2017-02-20T04:23:07.070Z,0
2017-02-20T04:24:06.652Z,0
2017-02-20T04:25:06.995Z,0
2017-02-20T04:26:06.229Z,0
2017-02-20T04:27:07.052Z,0
2017-02-20T04:28:05.820Z,0
2017-02-20T04:29:07.006Z,0
2017-02-20T04:30:06.589Z,0
2017-02-20T04:31:06.805Z,0
2017-02-20T04:32:06.612Z,0
2017-02-20T04:33:07.022Z,0
2017-02-20T04:34:07.062Z,0
2017-02-20T04:35:06.698Z,0
2017-02-20T04:36:07.128Z,0
2017-02-20T04:37:06.654Z,0
2017-02-20T04:38:07.084Z,0
2017-02-20T04:39:07.338Z,0
2017-02-20T04:40:07.122Z,0
2017-02-20T04:41:06.662Z,0
2017-02-20T04:42:07.057Z,0
2017-02-20T04:43:06.338Z,0
2017-02-20T04:44:06.733Z,0
2017-02-20T04:45:07.076Z,0
2017-02-20T04:46:07.079Z,0
2017-02-20T04:47:07.153Z,0
2017-02-20T04:48:07.147Z,0
2017-02-20T04:49:07.109Z,0
2017-02-20T04:50:07.115Z,0
2017-02-20T04:51:06.734Z,0
2017-02-20T04:52:07.171Z,0
2017-02-20T04:53:06.789Z,0
2017-02-20T04:54:07.189Z,0
2017-02-20T04:55:06.353Z,0
2017-02-20T04:56:06.415Z,0
2017-02-20T04:57:07.191Z,0
2017-02-20T04:58:07.250Z,0
2017-02-20T04:59:07.161Z,0
2017-02-20T05:00:07.184Z,0
2017-02-20T05:01:06.782Z,0
2017-02-20T05:02:06.442Z,0
2017-02-20T05:03:07.180Z,0
2017-02-20T05:04:07.230Z,0
2017-02-20T05:05:06.844Z,0
2017-02-20T05:06:07.297Z,0
2017-02-20T05:07:07.303Z,0
2017-02-20T05:08:06.819Z,0
2017-02-20T05:09:06.833Z,0
2017-02-20T05:10:06.892Z,0
2017-02-20T05:11:07.236Z,0
2017-02-20T05:12:07.886Z,0
2017-02-20T05:13:07.281Z,0
2017-02-20T05:14:21.386Z,0
2017-02-20T05:15:07.283Z,0
2017-02-20T05:16:07.047Z,0
2017-02-20T05:17:06.919Z,0
2017-02-20T05:18:06.926Z,0
2017-02-20T05:19:07.315Z,0
2017-02-20T05:20:06.538Z,0
2017-02-20T05:21:07.339Z,0
2017-02-20T05:22:07.160Z,0
2017-02-20T05:23:07.285Z,0
2017-02-20T05:24:07.303Z,0
2017-02-20T05:25:07.439Z,0
2017-02-20T05:26:06.962Z,0
2017-02-20T05:27:07.368Z,0
2017-02-20T05:28:07.344Z,0
2017-02-20T05:29:07.318Z,0
2017-02-20T05:30:07.439Z,0
2017-02-20T05:31:07.423Z,0
2017-02-20T05:32:07.418Z,0
2017-02-20T05:33:07.450Z,0
2017-02-20T05:34:07.368Z,0
2017-02-20T05:35:07.458Z,0
2017-02-20T05:36:07.369Z,0
2017-02-20T05:37:07.025Z,0
2017-02-20T05:38:07.434Z,0
2017-02-20T05:39:07.399Z,0
2017-02-20T05:40:07.377Z,0
2017-02-20T05:41:07.454Z,0
2017-02-20T05:42:07.442Z,0
2017-02-20T05:43:07.439Z,0
2017-02-20T05:44:07.054Z,0
2017-02-20T05:45:06.768Z,0
2017-02-20T05:46:07.462Z,0
2017-02-20T05:47:07.528Z,0
2017-02-20T05:48:07.435Z,0
2017-02-20T05:49:07.779Z,0
2017-02-20T05:50:07.498Z,0
2017-02-20T05:51:07.505Z,0
2017-02-20T05:52:07.509Z,0
2017-02-20T05:53:07.901Z,0
2017-02-20T05:54:07.503Z,0
2017-02-20T05:55:07.462Z,0
2017-02-20T05:56:07.470Z,0
2017-02-20T05:57:07.537Z,0
2017-02-20T05:58:07.093Z,0
2017-02-20T05:59:07.548Z,0
2017-02-20T06:00:07.149Z,0
2017-02-20T06:01:07.185Z,0
2017-02-20T06:02:07.517Z,0
2017-02-20T06:03:06.778Z,0
2017-02-20T06:04:07.125Z,0
2017-02-20T06:05:07.617Z,0
2017-02-20T06:06:07.574Z,0
2017-02-20T06:07:07.189Z,0
2017-02-20T06:08:07.189Z,0
2017-02-20T06:09:07.207Z,0
2017-02-20T06:10:07.574Z,0
2017-02-20T06:11:07.558Z,0
2017-02-20T06:12:07.715Z,0
2017-02-20T06:13:07.660Z,0
2017-02-20T06:14:07.235Z,0
2017-02-20T06:15:07.227Z,0
2017-02-20T06:16:07.182Z,0
2017-02-20T06:17:06.955Z,0
2017-02-20T06:18:07.663Z,0
2017-02-20T06:19:07.663Z,0
2017-02-20T06:20:07.310Z,0
2017-02-20T06:21:07.350Z,0
2017-02-20T06:22:07.579Z,0
2017-02-20T06:23:07.283Z,0
2017-02-20T06:24:07.727Z,0
2017-02-20T06:25:07.729Z,0
2017-02-20T06:26:07.242Z,0
2017-02-20T06:27:07.755Z,0
2017-02-20T06:28:07.707Z,0
2017-02-20T06:29:07.802Z,0
2017-02-20T06:30:07.665Z,0
2017-02-20T06:31:07.732Z,0
2017-02-20T06:32:07.286Z,0
2017-02-20T06:33:07.281Z,0
2017-02-20T06:34:07.761Z,0
2017-02-20T06:35:07.307Z,0
2017-02-20T06:36:07.787Z,0
2017-02-20T06:37:07.708Z,0
2017-02-20T06:38:07.758Z,0
2017-02-20T06:39:07.716Z,0
2017-02-20T06:40:07.723Z,0
2017-02-20T06:41:07.873Z,0
2017-02-20T06:42:07.798Z,0
2017-02-20T06:43:07.740Z,0
2017-02-20T06:44:07.340Z,0
2017-02-20T06:45:07.740Z,0
2017-02-20T06:46:07.813Z,0
2017-02-20T06:47:07.376Z,0
2017-02-20T06:48:07.876Z,0
2017-02-20T06:49:07.365Z,0
2017-02-20T06:50:07.798Z,0
2017-02-20T06:51:07.781Z,0
2017-02-20T06:52:07.798Z,0
2017-02-20T06:53:07.478Z,0
2017-02-20T06:54:07.794Z,0
2017-02-20T06:55:07.908Z,0
2017-02-20T06:56:06.630Z,0
2017-02-20T06:57:07.864Z,0
2017-02-20T06:58:07.510Z,0
2017-02-20T06:59:07.421Z,0
2017-02-20T07:00:08.174Z,0
2017-02-20T07:01:07.482Z,0
2017-02-20T07:02:07.497Z,0
2017-02-20T07:03:07.861Z,0
2017-02-20T07:04:07.841Z,0
2017-02-20T07:05:07.858Z,0
2017-02-20T07:06:07.938Z,0
2017-02-20T07:07:07.869Z,0
2017-02-20T07:08:07.863Z,0
2017-02-20T07:09:07.878Z,0
2017-02-20T07:10:07.497Z,0
2017-02-20T07:11:07.879Z,0
2017-02-20T07:12:07.548Z,0
2017-02-20T07:13:07.906Z,0
2017-02-20T07:14:08.037Z,5
2017-02-20T07:15:07.896Z,5
2017-02-20T07:16:07.930Z,5
2017-02-20T07:17:07.974Z,5
2017-02-20T07:18:08.042Z,5
2017-02-20T07:19:07.181Z,5
2017-02-20T07:20:07.984Z,5
2017-02-20T07:21:06.745Z,10
2017-02-20T07:22:07.592Z,10
2017-02-20T07:23:07.556Z,10
2017-02-20T07:24:07.610Z,5
2017-02-20T07:25:07.623Z,5
2017-02-20T07:26:08.056Z,5
2017-02-20T07:27:08.026Z,5
2017-02-20T07:28:08.022Z,5
2017-02-20T07:29:07.973Z,5
2017-02-20T07:30:07.198Z,5
2017-02-20T07:31:07.708Z,5
2017-02-20T07:32:07.257Z,5
2017-02-20T07:33:08.109Z,5
2017-02-20T07:34:07.665Z,5
2017-02-20T07:35:08.075Z,5
2017-02-20T07:36:08.083Z,5
2017-02-20T07:37:08.071Z,5
2017-02-20T07:38:08.097Z,5
2017-02-20T07:39:07.853Z,5
2017-02-20T07:40:08.096Z,5
2017-02-20T07:41:07.261Z,5
2017-02-20T07:42:08.151Z,5
2017-02-20T07:43:07.686Z,10
2017-02-20T07:44:09.630Z,5
2017-02-20T07:45:07.736Z,5
2017-02-20T07:46:07.831Z,5
2017-02-20T07:47:07.759Z,10
2017-02-20T07:48:08.165Z,10
2017-02-20T07:49:07.748Z,10
2017-02-20T07:50:08.124Z,10
2017-02-20T07:51:08.128Z,10
2017-02-20T07:52:08.158Z,10
2017-02-20T07:53:07.749Z,10
2017-02-20T07:54:07.771Z,10
2017-02-20T07:55:07.851Z,10
2017-02-20T07:56:08.192Z,5
2017-02-20T07:57:08.152Z,10
2017-02-20T07:58:08.161Z,10
2017-02-20T07:59:07.803Z,10
2017-02-20T08:00:08.221Z,10
2017-02-20T08:01:08.165Z,10
2017-02-20T08:02:08.215Z,5
2017-02-20T08:03:08.205Z,10
2017-02-20T08:04:07.785Z,10
2017-02-20T08:05:07.842Z,10
2017-02-20T08:06:07.859Z,5
2017-02-20T08:07:07.913Z,5
2017-02-20T08:08:08.265Z,5
2017-02-20T08:09:08.251Z,5
2017-02-20T08:10:07.881Z,5
2017-02-20T08:11:08.276Z,5
2017-02-20T08:12:08.283Z,5
2017-02-20T08:13:08.496Z,10
2017-02-20T08:14:08.320Z,10
2017-02-20T08:15:07.518Z,10
2017-02-20T08:16:08.277Z,10
2017-02-20T08:17:09.438Z,10
2017-02-20T08:18:08.437Z,10
2017-02-20T08:19:08.278Z,10
2017-02-20T08:20:08.380Z,5
2017-02-20T08:21:08.449Z,5
2017-02-20T08:22:07.566Z,5
2017-02-20T08:23:08.356Z,5
2017-02-20T08:24:08.378Z,5
2017-02-20T08:25:08.381Z,5
2017-02-20T08:26:08.386Z,5
2017-02-20T08:27:07.992Z,5
2017-02-20T08:28:08.348Z,5
2017-02-20T08:29:08.438Z,5
2017-02-20T08:30:07.557Z,5
2017-02-20T08:31:07.560Z,5
2017-02-20T08:32:08.132Z,5
2017-02-20T08:33:08.382Z,10
2017-02-20T08:34:08.385Z,10
2017-02-20T08:35:08.554Z,10
2017-02-20T08:36:08.169Z,10
2017-02-20T08:37:08.019Z,10
2017-02-20T08:38:08.472Z,10
2017-02-20T08:39:08.011Z,10
2017-02-20T08:40:08.514Z,5
2017-02-20T08:41:08.079Z,5
2017-02-20T08:42:08.430Z,5
2017-02-20T08:43:08.496Z,10
2017-02-20T08:44:08.493Z,10
2017-02-20T08:45:08.550Z,10
2017-02-20T08:46:08.498Z,5
2017-02-20T08:47:08.618Z,5
2017-02-20T08:48:08.387Z,5
2017-02-20T08:49:08.575Z,5
2017-02-20T08:50:07.407Z,5
2017-02-20T08:51:07.744Z,5
2017-02-20T08:52:08.272Z,5
2017-02-20T08:53:08.522Z,5
2017-02-20T08:54:08.552Z,5
2017-02-20T08:55:08.566Z,5
2017-02-20T08:56:08.218Z,5
2017-02-20T08:57:08.225Z,5
2017-02-20T08:58:08.530Z,5
2017-02-20T08:59:08.533Z,5
2017-02-20T09:00:08.543Z,5
2017-02-20T09:01:08.592Z,5
2017-02-20T09:02:08.568Z,5
2017-02-20T09:03:08.566Z,5
2017-02-20T09:04:08.609Z,5
2017-02-20T09:05:08.689Z,5
2017-02-20T09:06:08.584Z,5
2017-02-20T09:07:09.280Z,5
2017-02-20T09:08:08.191Z,5
2017-02-20T09:09:08.601Z,10
2017-02-20T09:10:08.607Z,10
2017-02-20T09:11:08.677Z,5
2017-02-20T09:12:08.664Z,5
2017-02-20T09:13:08.277Z,5
2017-02-20T09:14:08.656Z,5
2017-02-20T09:15:08.434Z,10
2017-02-20T09:16:08.764Z,10
2017-02-20T09:17:08.262Z,10
2017-02-20T09:18:08.316Z,10
2017-02-20T09:19:08.659Z,10
2017-02-20T09:20:08.285Z,10
2017-02-20T09:21:08.290Z,10
2017-02-20T09:22:08.690Z,10
2017-02-20T09:23:08.839Z,10
2017-02-20T09:24:08.745Z,10
2017-02-20T09:25:08.748Z,10
2017-02-20T09:26:08.356Z,15
2017-02-20T09:27:08.783Z,15
2017-02-20T09:28:08.717Z,15
2017-02-20T09:29:08.824Z,15
2017-02-20T09:30:08.382Z,15
2017-02-20T09:31:08.795Z,15
2017-02-20T09:32:08.791Z,10
2017-02-20T09:33:08.800Z,10
2017-02-20T09:34:08.383Z,10
2017-02-20T09:35:08.428Z,10
2017-02-20T09:36:08.836Z,10
2017-02-20T09:37:08.804Z,10
2017-02-20T09:38:08.827Z,10
2017-02-20T09:39:08.805Z,10
2017-02-20T09:40:08.940Z,10
2017-02-20T09:41:08.850Z,10
2017-02-20T09:42:08.808Z,10
2017-02-20T09:43:08.491Z,10
2017-02-20T09:44:08.878Z,10
2017-02-20T09:45:08.874Z,10
2017-02-20T09:46:08.432Z,10
2017-02-20T09:47:08.556Z,10
2017-02-20T09:48:08.507Z,10
2017-02-20T09:49:08.954Z,10
2017-02-20T09:50:08.517Z,10
2017-02-20T09:51:08.868Z,10
2017-02-20T09:52:08.487Z,10
2017-02-20T09:53:08.589Z,10
2017-02-20T09:54:08.902Z,10
2017-02-20T09:55:08.901Z,10
2017-02-20T09:56:08.161Z,10
2017-02-20T09:57:08.534Z,10
2017-02-20T09:58:09.230Z,10
2017-02-20T09:59:08.980Z,10
2017-02-20T10:00:08.945Z,10
2017-02-20T10:01:08.950Z,10
2017-02-20T10:02:08.993Z,10
2017-02-20T10:03:08.200Z,10
2017-02-20T10:04:08.666Z,10
2017-02-20T10:05:08.588Z,10
2017-02-20T10:06:09.009Z,10
2017-02-20T10:07:08.989Z,10
2017-02-20T10:08:08.593Z,10
2017-02-20T10:09:09.044Z,10
2017-02-20T10:10:08.194Z,15
2017-02-20T10:11:09.003Z,10
2017-02-20T10:12:09.009Z,10
2017-02-20T10:13:09.128Z,15
2017-02-20T10:14:09.069Z,15
2017-02-20T10:15:08.740Z,15
2017-02-20T10:16:08.329Z,10
2017-02-20T10:17:09.139Z,15
2017-02-20T10:18:08.416Z,10
2017-02-20T10:19:08.647Z,10
2017-02-20T10:20:08.321Z,10
2017-02-20T10:21:09.129Z,10
2017-02-20T10:22:08.779Z,10
2017-02-20T10:23:08.765Z,10
2017-02-20T10:24:09.136Z,15
2017-02-20T10:25:08.309Z,15
2017-02-20T10:26:08.360Z,15
2017-02-20T10:27:09.118Z,15
2017-02-20T10:28:08.705Z,15
2017-02-20T10:29:08.743Z,15
2017-02-20T10:30:09.144Z,20
2017-02-20T10:31:08.041Z,15
2017-02-20T10:32:08.831Z,15
2017-02-20T10:33:09.141Z,15
2017-02-20T10:34:09.203Z,10
2017-02-20T10:35:09.201Z,15
2017-02-20T10:36:09.203Z,15
2017-02-20T10:37:09.293Z,10
2017-02-20T10:38:08.782Z,20
2017-02-20T10:39:08.804Z,15
2017-02-20T10:40:08.805Z,10
2017-02-20T10:41:09.194Z,10
2017-02-20T10:42:09.376Z,15
2017-02-20T10:43:08.858Z,10
2017-02-20T10:44:08.983Z,10
2017-02-20T10:45:08.831Z,10
2017-02-20T10:46:08.826Z,10
2017-02-20T10:47:08.485Z,10
2017-02-20T10:48:09.290Z,10
2017-02-20T10:49:09.235Z,10
2017-02-20T10:50:08.889Z,15
2017-02-20T10:51:09.205Z,15
2017-02-20T10:52:09.251Z,15
2017-02-20T10:53:09.375Z,15
2017-02-20T10:54:08.881Z,20
2017-02-20T10:55:09.289Z,20
2017-02-20T10:56:08.895Z,25
2017-02-20T10:57:09.293Z,25
2017-02-20T10:58:08.511Z,25
2017-02-20T10:59:09.476Z,30
2017-02-20T11:00:08.930Z,30
2017-02-20T11:01:09.387Z,30
2017-02-20T11:02:08.955Z,30
2017-02-20T11:03:09.388Z,35
2017-02-20T11:04:09.339Z,40
2017-02-20T11:05:09.996Z,35
2017-02-20T11:06:09.127Z,35
2017-02-20T11:07:09.412Z,30
2017-02-20T11:08:08.634Z,25
2017-02-20T11:09:08.989Z,25
2017-02-20T11:10:23.574Z,25
2017-02-20T11:11:09.491Z,25
2017-02-20T11:12:09.029Z,25
2017-02-20T11:13:08.815Z,25
2017-02-20T11:14:09.142Z,20
2017-02-20T11:15:09.034Z,20
2017-02-20T11:16:09.440Z,20
2017-02-20T11:17:09.488Z,20
2017-02-20T11:18:09.556Z,20
2017-02-20T11:19:09.514Z,20
2017-02-20T11:20:09.515Z,15
2017-02-20T11:21:09.511Z,15
2017-02-20T11:22:09.517Z,15
2017-02-20T11:23:08.674Z,15
2017-02-20T11:24:09.587Z,15
2017-02-20T11:25:10.229Z,15
2017-02-20T11:26:09.556Z,15
2017-02-20T11:27:09.641Z,15
2017-02-20T11:28:09.562Z,10
2017-02-20T11:29:09.627Z,10
2017-02-20T11:30:09.537Z,10
2017-02-20T11:31:09.634Z,10
2017-02-20T11:32:09.200Z,10
2017-02-20T11:33:09.636Z,10
2017-02-20T11:34:09.603Z,10
2017-02-20T11:35:09.569Z,10
2017-02-20T11:36:09.563Z,15
2017-02-20T11:37:08.385Z,15
2017-02-20T11:38:09.275Z,15
2017-02-20T11:39:09.632Z,15
2017-02-20T11:40:08.927Z,15
2017-02-20T11:41:08.828Z,15
2017-02-20T11:42:08.800Z,15
2017-02-20T11:43:09.592Z,15
2017-02-20T11:44:09.210Z,15
2017-02-20T11:45:09.322Z,15
2017-02-20T11:46:09.679Z,15
2017-02-20T11:47:09.259Z,20
2017-02-20T11:48:09.688Z,20
2017-02-20T11:49:09.695Z,20
2017-02-20T11:50:09.389Z,20
2017-02-20T11:51:09.316Z,15
2017-02-20T11:52:09.694Z,15
2017-02-20T11:53:11.727Z,15
2017-02-20T11:54:09.789Z,15
2017-02-20T11:55:09.749Z,15
2017-02-20T11:56:09.750Z,15
2017-02-20T11:57:09.803Z,10
2017-02-20T11:58:10.245Z,10
2017-02-20T11:59:09.567Z,10
2017-02-20T12:00:10.021Z,15
2017-02-20T12:01:09.397Z,10
2017-02-20T12:02:10.140Z,10
2017-02-20T12:03:09.853Z,10
2017-02-20T12:04:09.440Z,10
2017-02-20T12:05:09.428Z,10
2017-02-20T12:06:09.783Z,10
2017-02-20T12:07:09.421Z,10
2017-02-20T12:08:09.396Z,10
2017-02-20T12:09:09.447Z,15
2017-02-20T12:10:09.379Z,15
2017-02-20T12:11:09.840Z,15
2017-02-20T12:12:09.839Z,15
2017-02-20T12:13:09.455Z,15
2017-02-20T12:14:09.853Z,15
2017-02-20T12:15:09.981Z,15
2017-02-20T12:16:09.830Z,10
2017-02-20T12:17:09.841Z,10
2017-02-20T12:18:09.889Z,10
2017-02-20T12:19:09.545Z,10
2017-02-20T12:20:09.193Z,10
2017-02-20T12:21:09.908Z,15
2017-02-20T12:22:09.997Z,15
2017-02-20T12:23:09.474Z,15
2017-02-20T12:24:09.525Z,10
2017-02-20T12:25:10.177Z,10
2017-02-20T12:26:09.925Z,10
2017-02-20T12:27:09.555Z,10
2017-02-20T12:28:09.917Z,10
2017-02-20T12:29:09.956Z,10
2017-02-20T12:30:09.820Z,10
2017-02-20T12:31:10.279Z,15
2017-02-20T12:32:09.980Z,15
2017-02-20T12:33:09.236Z,15
2017-02-20T12:34:09.958Z,15
2017-02-20T12:35:09.714Z,10
2017-02-20T12:36:09.616Z,10
2017-02-20T12:37:09.614Z,10
2017-02-20T12:38:09.377Z,10
2017-02-20T12:39:10.046Z,10
2017-02-20T12:40:10.045Z,10
2017-02-20T12:41:10.115Z,15
2017-02-20T12:42:09.688Z,15
2017-02-20T12:43:10.042Z,15
2017-02-20T12:44:10.207Z,15
2017-02-20T12:45:10.118Z,10
2017-02-20T12:46:10.074Z,10
2017-02-20T12:47:10.190Z,15
2017-02-20T12:48:10.369Z,15
2017-02-20T12:49:09.536Z,15
2017-02-20T12:50:10.072Z,15
2017-02-20T12:51:09.287Z,15
2017-02-20T12:52:10.323Z,10
2017-02-20T12:53:10.054Z,10
2017-02-20T12:54:10.464Z,10
2017-02-20T12:55:10.168Z,10
2017-02-20T12:56:09.729Z,10
2017-02-20T12:57:10.308Z,10
2017-02-20T12:58:10.133Z,15
2017-02-20T12:59:10.138Z,10
2017-02-20T13:00:09.878Z,10
2017-02-20T13:01:09.712Z,10
2017-02-20T13:02:09.768Z,10
2017-02-20T13:03:10.171Z,10
2017-02-20T13:04:10.284Z,10
2017-02-20T13:05:09.781Z,10
2017-02-20T13:06:10.259Z,10
2017-02-20T13:07:10.141Z,10
2017-02-20T13:08:10.252Z,10
2017-02-20T13:09:09.800Z,10
2017-02-20T13:10:10.473Z,10
2017-02-20T13:11:09.395Z,10
2017-02-20T13:12:10.505Z,10
2017-02-20T13:13:10.237Z,10
2017-02-20T13:14:09.800Z,10
2017-02-20T13:15:10.041Z,10
2017-02-20T13:16:10.255Z,10
2017-02-20T13:17:10.721Z,10
2017-02-20T13:18:10.223Z,10
2017-02-20T13:19:10.229Z,10
2017-02-20T13:20:09.840Z,10
2017-02-20T13:21:10.366Z,10
2017-02-20T13:22:09.956Z,10
2017-02-20T13:23:09.882Z,10
2017-02-20T13:24:10.720Z,10
2017-02-20T13:25:10.298Z,10
2017-02-20T13:26:09.927Z,15
2017-02-20T13:27:10.677Z,15
2017-02-20T13:28:10.295Z,15
2017-02-20T13:29:10.315Z,15
2017-02-20T13:30:10.620Z,15
2017-02-20T13:31:10.332Z,15
2017-02-20T13:32:10.365Z,15
2017-02-20T13:33:10.004Z,15
2017-02-20T13:34:10.322Z,10
2017-02-20T13:35:10.421Z,10
2017-02-20T13:36:10.951Z,10
2017-02-20T13:37:10.018Z,5
2017-02-20T13:38:10.003Z,5
2017-02-20T13:39:10.431Z,5
2017-02-20T13:40:10.080Z,5
2017-02-20T13:41:12.519Z,5
2017-02-20T13:42:10.483Z,5
2017-02-20T13:43:10.040Z,5
2017-02-20T13:44:10.050Z,5
2017-02-20T13:45:10.453Z,5
2017-02-20T13:46:10.618Z,5
2017-02-20T13:47:11.421Z,5
2017-02-20T13:48:10.581Z,10
2017-02-20T13:49:10.023Z,5
2017-02-20T13:50:10.486Z,10
2017-02-20T13:51:10.069Z,10
2017-02-20T13:52:10.558Z,10
2017-02-20T13:53:09.687Z,10
2017-02-20T13:54:10.498Z,10
2017-02-20T13:55:10.484Z,10
2017-02-20T13:56:10.085Z,5
2017-02-20T13:57:10.478Z,5
2017-02-20T13:58:10.138Z,10
2017-02-20T13:59:10.531Z,10
2017-02-20T14:00:10.195Z,10
2017-02-20T14:01:09.832Z,10
2017-02-20T14:02:10.238Z,10
2017-02-20T14:03:10.164Z,10
2017-02-20T14:04:09.452Z,10
2017-02-20T14:05:10.130Z,10
2017-02-20T14:06:10.548Z,10
2017-02-20T14:07:10.207Z,10
2017-02-20T14:08:11.505Z,10
2017-02-20T14:09:10.218Z,10
2017-02-20T14:10:10.208Z,10
2017-02-20T14:11:10.611Z,5
2017-02-20T14:12:10.224Z,5
2017-02-20T14:13:10.633Z,5
2017-02-20T14:14:10.589Z,5
2017-02-20T14:15:10.221Z,5
2017-02-20T14:16:10.256Z,5
2017-02-20T14:17:10.729Z,5
2017-02-20T14:18:10.350Z,5
2017-02-20T14:19:10.672Z,10
2017-02-20T14:20:09.876Z,10
2017-02-20T14:21:09.898Z,10
2017-02-20T14:22:10.706Z,10
2017-02-20T14:23:10.268Z,10
2017-02-20T14:24:09.977Z,10
2017-02-20T14:25:10.378Z,10
2017-02-20T14:26:10.381Z,10
2017-02-20T14:27:10.384Z,10
2017-02-20T14:28:09.908Z,5
2017-02-20T14:29:10.745Z,5
2017-02-20T14:30:10.315Z,10
2017-02-20T14:31:10.718Z,10
2017-02-20T14:32:10.825Z,10
2017-02-20T14:33:10.764Z,10
2017-02-20T14:34:10.340Z,10